UAL18 LIMC-KEWR
Flight info
| Callsign | UAL18 |
|---|---|
| Flight time | N/A |
| Altitude | 38000 |
| Route | AOSTA DCT ORSUD DCT MOLUS DCT UNKIR DCT DJL DCT OKRIX DCT AMODO DCT COHPA UM729 RESMI UN491 LGL UN502 JSY DCT LIZAD DCT LESLU DCT LODLA DCT NEBIN/M082F390 NATG TUDEP/N0477F400 N530A MIILS DCT CBIRD DCT HANAA FLOSI4 |
| Aircraft | B772/H-SDE2E3FGHIJ5LORVWXY/LB1D1 |
Departure
| Time | N/A |
|---|---|
| Airport | Milan Malpensa International Airport (LIMC) |
Arrival
| Time | 2026-05-03 22:13 |
|---|---|
| Airport | Newark Liberty International Airport (KEWR) |
| Time | Latitude | Longitude | Altitude | Speed | Heading |
|---|---|---|---|---|---|
| 2026-05-03 20:15 | 49.23091 | -60.42609 | 39821 ft | 428 kts | 242° |
| 2026-05-03 20:15 | 49.20524 | -60.50822 | 39817 ft | 428 kts | 242° |
| 2026-05-03 20:16 | 49.17950 | -60.59030 | 39805 ft | 428 kts | 241° |
| 2026-05-03 20:16 | 49.15390 | -60.67166 | 39805 ft | 427 kts | 241° |
| 2026-05-03 20:17 | 49.12812 | -60.75333 | 39807 ft | 427 kts | 241° |
| 2026-05-03 20:17 | 49.10231 | -60.83484 | 39811 ft | 426 kts | 241° |
| 2026-05-03 20:18 | 49.07644 | -60.91624 | 39806 ft | 426 kts | 241° |
| 2026-05-03 20:18 | 49.05072 | -60.99695 | 39807 ft | 426 kts | 240° |
| 2026-05-03 20:19 | 49.02475 | -61.07813 | 39805 ft | 426 kts | 240° |
| 2026-05-03 20:19 | 48.99871 | -61.15929 | 39808 ft | 427 kts | 240° |
| 2026-05-03 20:20 | 48.97257 | -61.24049 | 39807 ft | 427 kts | 240° |
| 2026-05-03 20:20 | 48.94655 | -61.32107 | 39805 ft | 427 kts | 240° |
| 2026-05-03 20:21 | 48.92029 | -61.40214 | 39805 ft | 428 kts | 240° |
| 2026-05-03 20:21 | 48.89391 | -61.48331 | 39802 ft | 428 kts | 240° |
| 2026-05-03 20:22 | 48.86747 | -61.56440 | 39810 ft | 429 kts | 240° |
| 2026-05-03 20:22 | 48.84110 | -61.64502 | 39801 ft | 429 kts | 240° |
| 2026-05-03 20:23 | 48.81447 | -61.72619 | 39803 ft | 430 kts | 239° |
| 2026-05-03 20:23 | 48.78777 | -61.80729 | 39801 ft | 430 kts | 239° |
| 2026-05-03 20:24 | 48.76096 | -61.88847 | 39802 ft | 431 kts | 239° |
| 2026-05-03 20:24 | 48.73407 | -61.96966 | 39802 ft | 431 kts | 239° |
| 2026-05-03 20:25 | 48.70725 | -62.05036 | 39802 ft | 432 kts | 239° |
| 2026-05-03 20:25 | 48.68018 | -62.13155 | 39797 ft | 432 kts | 239° |
| 2026-05-03 20:26 | 48.65301 | -62.21278 | 39799 ft | 433 kts | 239° |
| 2026-05-03 20:26 | 48.62578 | -62.29394 | 39796 ft | 433 kts | 239° |
| 2026-05-03 20:27 | 48.59861 | -62.37464 | 39796 ft | 434 kts | 239° |
| 2026-05-03 20:27 | 48.57119 | -62.45585 | 39793 ft | 434 kts | 239° |
| 2026-05-03 20:28 | 48.54369 | -62.53704 | 39795 ft | 435 kts | 239° |
| 2026-05-03 20:28 | 48.51610 | -62.61825 | 39797 ft | 435 kts | 239° |
| 2026-05-03 20:29 | 48.48859 | -62.69895 | 39792 ft | 436 kts | 239° |
| 2026-05-03 20:29 | 48.46082 | -62.78016 | 39794 ft | 436 kts | 239° |
| 2026-05-03 20:30 | 48.43295 | -62.86139 | 39788 ft | 437 kts | 239° |
| 2026-05-03 20:30 | 48.40516 | -62.94214 | 39787 ft | 437 kts | 239° |
| 2026-05-03 20:31 | 48.37713 | -63.02336 | 39784 ft | 438 kts | 238° |
| 2026-05-03 20:31 | 48.34898 | -63.10465 | 39783 ft | 439 kts | 238° |
| 2026-05-03 20:32 | 48.32074 | -63.18595 | 39781 ft | 439 kts | 238° |
| 2026-05-03 20:32 | 48.29260 | -63.26672 | 39779 ft | 440 kts | 238° |
| 2026-05-03 20:33 | 48.26416 | -63.34808 | 39776 ft | 440 kts | 238° |
| 2026-05-03 20:33 | 48.23565 | -63.42941 | 39773 ft | 441 kts | 238° |
| 2026-05-03 20:34 | 48.20705 | -63.51073 | 39775 ft | 441 kts | 238° |
| 2026-05-03 20:34 | 48.17857 | -63.59144 | 39775 ft | 441 kts | 238° |
| 2026-05-03 20:35 | 48.14979 | -63.67276 | 39779 ft | 442 kts | 238° |
| 2026-05-03 20:35 | 48.12093 | -63.75406 | 39761 ft | 443 kts | 238° |
| 2026-05-03 20:36 | 48.09197 | -63.83538 | 39770 ft | 443 kts | 238° |
| 2026-05-03 20:36 | 48.06308 | -63.91624 | 39769 ft | 444 kts | 238° |
| 2026-05-03 20:37 | 48.03393 | -63.99757 | 39763 ft | 445 kts | 238° |
| 2026-05-03 20:37 | 48.00464 | -64.07907 | 39764 ft | 445 kts | 238° |
| 2026-05-03 20:38 | 47.97526 | -64.16055 | 39760 ft | 446 kts | 238° |
| 2026-05-03 20:38 | 47.94602 | -64.24141 | 39758 ft | 446 kts | 238° |
| 2026-05-03 20:39 | 47.91646 | -64.32288 | 39754 ft | 447 kts | 238° |
| 2026-05-03 20:39 | 47.88684 | -64.40428 | 39759 ft | 447 kts | 238° |
| 2026-05-03 20:40 | 47.85713 | -64.48567 | 39753 ft | 447 kts | 238° |
| 2026-05-03 20:40 | 47.82756 | -64.56640 | 39752 ft | 448 kts | 238° |
| 2026-05-03 20:41 | 47.79766 | -64.64781 | 39749 ft | 448 kts | 238° |
| 2026-05-03 20:41 | 47.76771 | -64.72911 | 39748 ft | 449 kts | 238° |
| 2026-05-03 20:42 | 47.73767 | -64.81041 | 39744 ft | 449 kts | 238° |
| 2026-05-03 20:42 | 47.70772 | -64.89120 | 39746 ft | 449 kts | 238° |
| 2026-05-03 20:43 | 47.67751 | -64.97245 | 39742 ft | 450 kts | 238° |
| 2026-05-03 20:43 | 47.64720 | -65.05372 | 39745 ft | 451 kts | 238° |
| 2026-05-03 20:44 | 47.61678 | -65.13503 | 39737 ft | 451 kts | 238° |
| 2026-05-03 20:44 | 47.58652 | -65.21569 | 39742 ft | 451 kts | 237° |
| 2026-05-03 20:45 | 47.55600 | -65.29677 | 39750 ft | 451 kts | 237° |
| 2026-05-03 20:45 | 47.52538 | -65.37787 | 39750 ft | 451 kts | 237° |
| 2026-05-03 20:46 | 47.49469 | -65.45892 | 39752 ft | 451 kts | 237° |
| 2026-05-03 20:46 | 47.46394 | -65.53988 | 39757 ft | 452 kts | 237° |
| 2026-05-03 20:47 | 47.43333 | -65.62024 | 39754 ft | 452 kts | 237° |
| 2026-05-03 20:47 | 47.40246 | -65.70103 | 39754 ft | 452 kts | 237° |
| 2026-05-03 20:48 | 47.37149 | -65.78184 | 39754 ft | 452 kts | 237° |
| 2026-05-03 20:48 | 47.34044 | -65.86262 | 39752 ft | 453 kts | 237° |
| 2026-05-03 20:49 | 47.30930 | -65.94337 | 39742 ft | 453 kts | 237° |
| 2026-05-03 20:49 | 47.27834 | -66.02344 | 39738 ft | 453 kts | 237° |
| 2026-05-03 20:50 | 47.24709 | -66.10401 | 39733 ft | 453 kts | 237° |
| 2026-05-03 20:50 | 47.21575 | -66.18457 | 39725 ft | 453 kts | 237° |
| 2026-05-03 20:51 | 47.18437 | -66.26498 | 39722 ft | 453 kts | 237° |
| 2026-05-03 20:51 | 47.15311 | -66.34487 | 39718 ft | 454 kts | 237° |
| 2026-05-03 20:52 | 47.12160 | -66.42515 | 39716 ft | 454 kts | 237° |
| 2026-05-03 20:52 | 47.08998 | -66.50547 | 39710 ft | 454 kts | 237° |
| 2026-05-03 20:53 | 47.05833 | -66.58564 | 39710 ft | 454 kts | 237° |
| 2026-05-03 20:53 | 47.02681 | -66.66524 | 39712 ft | 455 kts | 237° |
| 2026-05-03 20:54 | 46.99504 | -66.74526 | 39708 ft | 455 kts | 237° |
| 2026-05-03 20:54 | 46.94725 | -66.86515 | 39716 ft | 454 kts | 237° |
| 2026-05-03 20:55 | 46.91554 | -66.94445 | 39715 ft | 455 kts | 237° |
| 2026-05-03 20:55 | 46.88355 | -67.02421 | 39711 ft | 454 kts | 237° |
| 2026-05-03 20:56 | 46.84954 | -67.10176 | 39712 ft | 453 kts | 233° |
| 2026-05-03 20:56 | 46.81390 | -67.17748 | 39716 ft | 453 kts | 233° |
| 2026-05-03 20:57 | 46.77804 | -67.25330 | 39720 ft | 454 kts | 233° |
| 2026-05-03 20:57 | 46.74246 | -67.32876 | 39709 ft | 454 kts | 233° |
| 2026-05-03 20:58 | 46.70674 | -67.40456 | 39717 ft | 453 kts | 233° |
| 2026-05-03 20:58 | 46.67102 | -67.48018 | 39719 ft | 453 kts | 233° |
| 2026-05-03 20:59 | 46.63528 | -67.55564 | 39717 ft | 453 kts | 233° |
| 2026-05-03 20:59 | 46.59975 | -67.63044 | 39721 ft | 452 kts | 233° |
| 2026-05-03 21:00 | 46.56974 | -67.69347 | 39718 ft | 452 kts | 233° |
| 2026-05-03 21:00 | 46.52807 | -67.78073 | 39718 ft | 453 kts | 233° |
| 2026-05-03 21:01 | 46.49211 | -67.85583 | 39718 ft | 453 kts | 233° |
| 2026-05-03 21:01 | 46.45631 | -67.93040 | 39720 ft | 453 kts | 233° |
| 2026-05-03 21:02 | 46.42029 | -68.00522 | 39726 ft | 453 kts | 233° |
| 2026-05-03 21:02 | 46.38419 | -68.08000 | 39727 ft | 453 kts | 233° |
| 2026-05-03 21:03 | 46.34806 | -68.15466 | 39723 ft | 453 kts | 233° |
| 2026-05-03 21:03 | 46.31184 | -68.22928 | 39736 ft | 453 kts | 233° |
| 2026-05-03 21:04 | 46.27582 | -68.30331 | 39725 ft | 453 kts | 233° |
| 2026-05-03 21:04 | 46.23946 | -68.37784 | 39745 ft | 454 kts | 233° |
| 2026-05-03 21:05 | 46.20302 | -68.45234 | 39731 ft | 454 kts | 233° |
| 2026-05-03 21:05 | 46.16679 | -68.52620 | 39734 ft | 455 kts | 233° |
| 2026-05-03 21:06 | 46.13017 | -68.60067 | 39734 ft | 455 kts | 233° |
| 2026-05-03 21:06 | 46.09354 | -68.67496 | 39734 ft | 455 kts | 233° |
| 2026-05-03 21:07 | 46.05681 | -68.74925 | 39757 ft | 456 kts | 233° |
| 2026-05-03 21:07 | 46.02018 | -68.82314 | 39727 ft | 456 kts | 233° |
| 2026-05-03 21:08 | 45.98328 | -68.89740 | 39731 ft | 456 kts | 233° |
| 2026-05-03 21:08 | 45.94634 | -68.97153 | 39733 ft | 456 kts | 233° |
| 2026-05-03 21:09 | 45.90939 | -69.04548 | 39735 ft | 456 kts | 233° |
| 2026-05-03 21:09 | 45.87258 | -69.11898 | 39728 ft | 456 kts | 233° |
| 2026-05-03 21:10 | 45.83549 | -69.19283 | 39727 ft | 456 kts | 233° |
| 2026-05-03 21:10 | 45.79837 | -69.26655 | 39722 ft | 456 kts | 233° |
| 2026-05-03 21:11 | 45.76115 | -69.34027 | 39724 ft | 456 kts | 233° |
| 2026-05-03 21:11 | 45.72392 | -69.41383 | 39722 ft | 457 kts | 233° |
| 2026-05-03 21:12 | 45.68686 | -69.48686 | 39719 ft | 457 kts | 233° |
| 2026-05-03 21:12 | 45.64948 | -69.56031 | 39722 ft | 457 kts | 233° |
| 2026-05-03 21:13 | 45.61207 | -69.63366 | 39722 ft | 457 kts | 233° |
| 2026-05-03 21:13 | 45.57459 | -69.70694 | 39725 ft | 457 kts | 233° |
| 2026-05-03 21:14 | 45.53706 | -69.78014 | 39729 ft | 457 kts | 233° |
| 2026-05-03 21:14 | 45.49979 | -69.85264 | 39733 ft | 457 kts | 233° |
| 2026-05-03 21:15 | 45.46216 | -69.92565 | 39737 ft | 457 kts | 233° |
| 2026-05-03 21:15 | 45.42451 | -69.99850 | 39742 ft | 457 kts | 233° |
| 2026-05-03 21:16 | 45.38679 | -70.07132 | 39745 ft | 457 kts | 233° |
| 2026-05-03 21:16 | 45.34928 | -70.14355 | 39749 ft | 457 kts | 233° |
| 2026-05-03 21:17 | 45.31788 | -70.20387 | 39758 ft | 457 kts | 233° |
| 2026-05-03 21:17 | 45.27364 | -70.28862 | 39761 ft | 457 kts | 233° |
| 2026-05-03 21:18 | 45.23573 | -70.36106 | 39764 ft | 457 kts | 233° |
| 2026-05-03 21:18 | 45.19805 | -70.43289 | 39768 ft | 457 kts | 233° |
| 2026-05-03 21:19 | 45.16009 | -70.50506 | 39773 ft | 457 kts | 233° |
| 2026-05-03 21:19 | 45.12250 | -70.57634 | 39782 ft | 457 kts | 233° |
| 2026-05-03 21:20 | 45.08446 | -70.64831 | 39787 ft | 457 kts | 233° |
| 2026-05-03 21:20 | 45.04661 | -70.71973 | 39788 ft | 456 kts | 233° |
| 2026-05-03 21:21 | 45.00851 | -70.79144 | 39797 ft | 456 kts | 233° |
| 2026-05-03 21:21 | 44.97036 | -70.86308 | 39793 ft | 456 kts | 233° |
| 2026-05-03 21:22 | 44.93219 | -70.93457 | 39801 ft | 456 kts | 233° |
| 2026-05-03 21:22 | 44.89424 | -71.00550 | 39807 ft | 456 kts | 233° |
| 2026-05-03 21:23 | 44.85599 | -71.07681 | 39802 ft | 456 kts | 233° |
| 2026-05-03 21:23 | 44.81570 | -71.14570 | 39804 ft | 456 kts | 229° |
| 2026-05-03 21:24 | 44.77351 | -71.21239 | 39795 ft | 456 kts | 229° |
| 2026-05-03 21:24 | 44.73152 | -71.27851 | 39795 ft | 456 kts | 229° |
| 2026-05-03 21:25 | 44.68933 | -71.34514 | 39785 ft | 456 kts | 229° |
| 2026-05-03 21:25 | 44.64713 | -71.41184 | 39805 ft | 456 kts | 229° |
| 2026-05-03 21:26 | 44.60491 | -71.47847 | 39806 ft | 457 kts | 229° |
| 2026-05-03 21:26 | 44.56263 | -71.54502 | 39823 ft | 457 kts | 229° |
| 2026-05-03 21:27 | 44.52058 | -71.61103 | 39817 ft | 457 kts | 229° |
| 2026-05-03 21:27 | 44.47818 | -71.67745 | 39820 ft | 457 kts | 229° |
| 2026-05-03 21:28 | 44.43574 | -71.74377 | 39822 ft | 457 kts | 229° |
| 2026-05-03 21:28 | 44.39323 | -71.81004 | 39823 ft | 457 kts | 229° |
| 2026-05-03 21:29 | 44.35073 | -71.87613 | 39826 ft | 457 kts | 229° |
| 2026-05-03 21:29 | 44.30848 | -71.94169 | 39832 ft | 457 kts | 229° |
| 2026-05-03 21:30 | 44.26592 | -72.00757 | 39840 ft | 457 kts | 229° |
| 2026-05-03 21:30 | 44.22330 | -72.07340 | 39840 ft | 457 kts | 229° |
| 2026-05-03 21:31 | 44.18067 | -72.13908 | 39851 ft | 457 kts | 229° |
| 2026-05-03 21:31 | 44.13827 | -72.20427 | 39855 ft | 457 kts | 229° |
| 2026-05-03 21:32 | 44.09555 | -72.26979 | 39858 ft | 457 kts | 229° |
| 2026-05-03 21:32 | 44.05278 | -72.33523 | 39864 ft | 457 kts | 229° |
| 2026-05-03 21:33 | 44.01000 | -72.40054 | 39868 ft | 457 kts | 229° |
| 2026-05-03 21:33 | 43.96750 | -72.46527 | 39867 ft | 457 kts | 229° |
| 2026-05-03 21:34 | 43.92467 | -72.53036 | 39873 ft | 457 kts | 229° |
| 2026-05-03 21:34 | 43.88176 | -72.59541 | 39872 ft | 457 kts | 229° |
| 2026-05-03 21:35 | 43.83885 | -72.66032 | 39871 ft | 457 kts | 229° |
| 2026-05-03 21:35 | 43.79621 | -72.72467 | 39869 ft | 457 kts | 229° |
| 2026-05-03 21:36 | 43.75327 | -72.78933 | 39861 ft | 457 kts | 229° |
| 2026-05-03 21:36 | 43.71024 | -72.85397 | 39855 ft | 457 kts | 229° |
| 2026-05-03 21:37 | 43.66747 | -72.91808 | 39856 ft | 456 kts | 229° |
| 2026-05-03 21:37 | 43.62444 | -72.98244 | 39849 ft | 457 kts | 229° |
| 2026-05-03 21:38 | 43.58129 | -73.04682 | 39854 ft | 457 kts | 229° |
| 2026-05-03 21:38 | 43.53812 | -73.11109 | 39854 ft | 457 kts | 229° |
| 2026-05-03 21:39 | 43.49492 | -73.17526 | 39857 ft | 457 kts | 229° |
| 2026-05-03 21:39 | 43.45192 | -73.23900 | 39859 ft | 457 kts | 229° |
| 2026-05-03 21:40 | 43.40852 | -73.30317 | 39864 ft | 458 kts | 229° |
| 2026-05-03 21:40 | 43.36517 | -73.36715 | 39861 ft | 457 kts | 229° |
| 2026-05-03 21:41 | 43.32179 | -73.43101 | 39856 ft | 457 kts | 229° |
| 2026-05-03 21:41 | 43.27864 | -73.49440 | 39854 ft | 457 kts | 229° |
| 2026-05-03 21:42 | 43.23535 | -73.55788 | 39853 ft | 457 kts | 229° |
| 2026-05-03 21:42 | 43.18890 | -73.61487 | 39860 ft | 460 kts | 212° |
| 2026-05-03 21:43 | 43.15895 | -73.63205 | 39858 ft | 463 kts | 200° |
| 2026-05-03 21:43 | 43.12844 | -73.64436 | 39861 ft | 464 kts | 199° |
| 2026-05-03 21:43 | 43.06647 | -73.66907 | 39880 ft | 465 kts | 200° |
| 2026-05-03 21:44 | 43.00442 | -73.69477 | 39893 ft | 466 kts | 200° |
| 2026-05-03 21:44 | 42.94242 | -73.72097 | 39884 ft | 467 kts | 201° |
| 2026-05-03 21:45 | 42.88046 | -73.74716 | 39882 ft | 468 kts | 201° |
| 2026-05-03 21:45 | 42.81869 | -73.77318 | 39879 ft | 468 kts | 201° |
| 2026-05-03 21:46 | 42.75637 | -73.79936 | 39876 ft | 468 kts | 201° |
| 2026-05-03 21:46 | 42.69433 | -73.82639 | 39875 ft | 468 kts | 202° |
| 2026-05-03 21:47 | 42.63296 | -73.85422 | 39885 ft | 468 kts | 202° |
| 2026-05-03 21:47 | 42.57162 | -73.88193 | 39885 ft | 467 kts | 202° |
| 2026-05-03 21:48 | 42.50990 | -73.90956 | 39891 ft | 467 kts | 202° |
| 2026-05-03 21:48 | 42.44814 | -73.93709 | 39896 ft | 467 kts | 202° |
| 2026-05-03 21:49 | 42.38653 | -73.96450 | 39889 ft | 463 kts | 202° |
| 2026-05-03 21:49 | 42.32621 | -73.99128 | 39540 ft | 460 kts | 202° |
| 2026-05-03 21:50 | 42.29583 | -74.00478 | 39126 ft | 457 kts | 202° |
| 2026-05-03 21:50 | 42.26577 | -74.01809 | 38719 ft | 453 kts | 202° |
| 2026-05-03 21:50 | 42.23592 | -74.03129 | 38212 ft | 450 kts | 202° |
| 2026-05-03 21:50 | 42.20630 | -74.04437 | 37740 ft | 445 kts | 202° |
| 2026-05-03 21:51 | 42.17698 | -74.05732 | 37296 ft | 441 kts | 203° |
| 2026-05-03 21:51 | 42.14800 | -74.07011 | 36881 ft | 436 kts | 203° |
| 2026-05-03 21:51 | 42.11968 | -74.08262 | 36476 ft | 432 kts | 203° |
| 2026-05-03 21:51 | 42.09130 | -74.09513 | 36073 ft | 428 kts | 203° |
| 2026-05-03 21:52 | 42.06311 | -74.10755 | 35672 ft | 424 kts | 203° |
| 2026-05-03 21:52 | 42.03522 | -74.11980 | 35253 ft | 421 kts | 203° |
| 2026-05-03 21:52 | 42.00740 | -74.13199 | 34842 ft | 418 kts | 204° |
| 2026-05-03 21:52 | 41.97986 | -74.14406 | 34441 ft | 416 kts | 204° |
| 2026-05-03 21:53 | 41.95244 | -74.15607 | 34005 ft | 413 kts | 204° |
| 2026-05-03 21:53 | 41.92546 | -74.16790 | 33524 ft | 412 kts | 204° |
| 2026-05-03 21:53 | 41.90233 | -74.17803 | 32938 ft | 414 kts | 204° |
| 2026-05-03 21:53 | 41.87490 | -74.19005 | 32217 ft | 417 kts | 204° |
| 2026-05-03 21:54 | 41.84735 | -74.20206 | 31465 ft | 412 kts | 204° |
| 2026-05-03 21:54 | 41.82043 | -74.21374 | 30700 ft | 402 kts | 204° |
| 2026-05-03 21:54 | 41.79413 | -74.22517 | 29961 ft | 393 kts | 204° |
| 2026-05-03 21:54 | 41.76836 | -74.23638 | 29091 ft | 385 kts | 205° |
| 2026-05-03 21:55 | 41.74316 | -74.24738 | 28238 ft | 377 kts | 205° |
| 2026-05-03 21:55 | 41.71842 | -74.25818 | 27411 ft | 371 kts | 205° |
| 2026-05-03 21:55 | 41.69431 | -74.26867 | 26619 ft | 367 kts | 205° |
| 2026-05-03 21:55 | 41.67021 | -74.27915 | 25832 ft | 363 kts | 205° |
| 2026-05-03 21:56 | 41.64631 | -74.28952 | 25082 ft | 359 kts | 205° |
| 2026-05-03 21:56 | 41.62264 | -74.29979 | 24351 ft | 356 kts | 205° |
| 2026-05-03 21:56 | 41.59919 | -74.30997 | 23635 ft | 354 kts | 205° |
| 2026-05-03 21:56 | 41.57587 | -74.32007 | 22832 ft | 352 kts | 205° |
| 2026-05-03 21:57 | 41.55269 | -74.33010 | 22010 ft | 349 kts | 205° |
| 2026-05-03 21:57 | 41.52988 | -74.33996 | 21228 ft | 347 kts | 205° |
| 2026-05-03 21:57 | 41.50667 | -74.34999 | 20428 ft | 346 kts | 205° |
| 2026-05-03 21:57 | 41.48416 | -74.35970 | 19685 ft | 344 kts | 205° |
| 2026-05-03 21:58 | 41.46164 | -74.36944 | 18957 ft | 342 kts | 205° |
| 2026-05-03 21:58 | 41.43885 | -74.37926 | 18227 ft | 340 kts | 205° |
| 2026-05-03 21:58 | 41.41648 | -74.38886 | 17498 ft | 336 kts | 205° |
| 2026-05-03 21:58 | 41.39442 | -74.39836 | 16807 ft | 331 kts | 205° |
| 2026-05-03 21:59 | 41.37259 | -74.40776 | 16136 ft | 327 kts | 204° |
| 2026-05-03 21:59 | 41.35105 | -74.41703 | 15470 ft | 324 kts | 204° |
| 2026-05-03 21:59 | 41.32973 | -74.42619 | 14807 ft | 321 kts | 204° |
| 2026-05-03 21:59 | 41.30888 | -74.43514 | 14183 ft | 318 kts | 204° |
| 2026-05-03 22:00 | 41.28781 | -74.44419 | 13839 ft | 316 kts | 204° |
| 2026-05-03 22:00 | 41.26689 | -74.45316 | 13419 ft | 316 kts | 204° |
| 2026-05-03 22:00 | 41.24598 | -74.46211 | 12957 ft | 316 kts | 203° |
| 2026-05-03 22:00 | 41.22504 | -74.47107 | 12515 ft | 316 kts | 204° |
| 2026-05-03 22:01 | 41.20416 | -74.47999 | 12109 ft | 315 kts | 204° |
| 2026-05-03 22:01 | 41.18340 | -74.48886 | 11712 ft | 314 kts | 204° |
| 2026-05-03 22:01 | 41.16288 | -74.49768 | 11303 ft | 314 kts | 204° |
| 2026-05-03 22:01 | 41.14213 | -74.50653 | 10914 ft | 312 kts | 204° |
| 2026-05-03 22:02 | 41.12149 | -74.51530 | 10510 ft | 311 kts | 204° |
| 2026-05-03 22:02 | 41.10082 | -74.52269 | 10143 ft | 307 kts | 191° |
| 2026-05-03 22:02 | 41.07970 | -74.51965 | 10020 ft | 308 kts | 164° |
| 2026-05-03 22:02 | 41.06122 | -74.50514 | 9642 ft | 314 kts | 137° |
| 2026-05-03 22:03 | 41.04855 | -74.48203 | 9268 ft | 307 kts | 114° |
| 2026-05-03 22:03 | 41.04000 | -74.45628 | 8907 ft | 305 kts | 111° |
| 2026-05-03 22:03 | 41.03178 | -74.43036 | 8549 ft | 304 kts | 111° |
| 2026-05-03 22:03 | 41.02379 | -74.40514 | 8218 ft | 294 kts | 111° |
| 2026-05-03 22:04 | 41.01590 | -74.38037 | 7440 ft | 290 kts | 111° |
| 2026-05-03 22:04 | 41.00811 | -74.35593 | 6727 ft | 286 kts | 112° |
| 2026-05-03 22:04 | 41.00052 | -74.33246 | 6378 ft | 269 kts | 112° |
| 2026-05-03 22:04 | 40.99326 | -74.31013 | 5941 ft | 264 kts | 112° |
| 2026-05-03 22:05 | 40.98593 | -74.28761 | 5530 ft | 270 kts | 112° |
| 2026-05-03 22:05 | 40.97845 | -74.26464 | 5142 ft | 271 kts | 112° |
| 2026-05-03 22:05 | 40.97121 | -74.24247 | 5126 ft | 258 kts | 112° |
| 2026-05-03 22:05 | 40.96441 | -74.22167 | 4902 ft | 268 kts | 112° |
| 2026-05-03 22:06 | 40.95714 | -74.19946 | 4756 ft | 265 kts | 112° |
| 2026-05-03 22:06 | 40.94990 | -74.17740 | 4632 ft | 257 kts | 112° |
| 2026-05-03 22:06 | 40.94248 | -74.15673 | 4472 ft | 246 kts | 124° |
| 2026-05-03 22:06 | 40.92973 | -74.14181 | 4295 ft | 241 kts | 153° |
| 2026-05-03 22:07 | 40.91506 | -74.13116 | 4102 ft | 243 kts | 153° |
| 2026-05-03 22:07 | 40.90520 | -74.12388 | 3986 ft | 246 kts | 153° |
| 2026-05-03 22:07 | 40.88802 | -74.11107 | 3740 ft | 247 kts | 153° |
| 2026-05-03 22:07 | 40.87336 | -74.10012 | 3553 ft | 233 kts | 153° |
| 2026-05-03 22:08 | 40.85993 | -74.09007 | 3300 ft | 218 kts | 153° |
| 2026-05-03 22:08 | 40.84712 | -74.08053 | 3167 ft | 203 kts | 154° |
| 2026-05-03 22:08 | 40.83453 | -74.07267 | 3035 ft | 198 kts | 173° |
| 2026-05-03 22:08 | 40.82096 | -74.07117 | 2881 ft | 197 kts | 184° |
| 2026-05-03 22:09 | 40.80711 | -74.07090 | 2692 ft | 199 kts | 185° |
| 2026-05-03 22:09 | 40.79346 | -74.07059 | 2514 ft | 194 kts | 186° |
| 2026-05-03 22:09 | 40.78009 | -74.07037 | 2280 ft | 190 kts | 184° |
| 2026-05-03 22:10 | 40.75533 | -74.07192 | 1824 ft | 168 kts | 210° |
| 2026-05-03 22:10 | 40.74554 | -74.07891 | 1663 ft | 161 kts | 215° |
| 2026-05-03 22:10 | 40.73544 | -74.08564 | 1434 ft | 164 kts | 213° |
| 2026-05-03 22:10 | 40.72544 | -74.09225 | 1367 ft | 153 kts | 214° |
| 2026-05-03 22:11 | 40.71644 | -74.09823 | 1158 ft | 138 kts | 214° |
| 2026-05-03 22:11 | 40.70831 | -74.10398 | 877 ft | 127 kts | 226° |
| 2026-05-03 22:11 | 40.70438 | -74.11373 | 663 ft | 125 kts | 261° |
| 2026-05-03 22:11 | 40.70219 | -74.12491 | 567 ft | 130 kts | 261° |
| 2026-05-03 22:12 | 40.70080 | -74.13265 | 465 ft | 131 kts | 268° |
| 2026-05-03 22:12 | 40.70064 | -74.14785 | 206 ft | 120 kts | 277° |
| 2026-05-03 22:12 | 40.70129 | -74.15838 | 45 ft | 111 kts | 281° |
| 2026-05-03 22:12 | 40.70190 | -74.16705 | 30 ft | 76 kts | 275° |
| 2026-05-03 22:13 | 40.70219 | -74.17115 | 27 ft | 26 kts | 275° |
| 2026-05-03 22:13 | 40.70233 | -74.17316 | 27 ft | 22 kts | 275° |
| 2026-05-03 22:13 | 40.70244 | -74.17521 | 27 ft | 22 kts | 270° |
| 2026-05-03 22:13 | 40.70236 | -74.17657 | 27 ft | 22 kts | 259° |
| 2026-05-03 22:14 | 40.70174 | -74.17856 | 27 ft | 11 kts | 245° |
| 2026-05-03 22:14 | 40.70124 | -74.17914 | 27 ft | 10 kts | 191° |
| 2026-05-03 22:14 | 40.70077 | -74.17868 | 27 ft | 9 kts | 108° |
| 2026-05-03 22:14 | 40.70071 | -74.17793 | 27 ft | 8 kts | 94° |
| 2026-05-03 22:15 | 40.70065 | -74.17713 | 27 ft | 10 kts | 95° |
| 2026-05-03 22:15 | 40.70061 | -74.17651 | 27 ft | 10 kts | 95° |
| 2026-05-03 22:15 | 40.70055 | -74.17560 | 27 ft | 10 kts | 95° |
| 2026-05-03 22:15 | 40.70051 | -74.17493 | 27 ft | 1 kts | 94° |
| 2026-05-03 22:16 | 40.70050 | -74.17488 | 27 ft | 3 kts | 94° |
| 2026-05-03 22:16 | 40.70048 | -74.17442 | 27 ft | 5 kts | 94° |
| 2026-05-03 22:16 | 40.70042 | -74.17406 | 27 ft | 7 kts | 111° |
| 2026-05-03 22:16 | 40.70011 | -74.17372 | 27 ft | 7 kts | 162° |
| 2026-05-03 22:17 | 40.69972 | -74.17377 | 27 ft | 7 kts | 189° |
| 2026-05-03 22:17 | 40.69913 | -74.17387 | 27 ft | 9 kts | 184° |
| 2026-05-03 22:17 | 40.69863 | -74.17369 | 27 ft | 7 kts | 146° |
| 2026-05-03 22:17 | 40.69817 | -74.17304 | 27 ft | 8 kts | 133° |
| 2026-05-03 22:18 | 40.69775 | -74.17250 | 27 ft | 10 kts | 136° |
| 2026-05-03 22:18 | 40.69734 | -74.17202 | 26 ft | 12 kts | 141° |
| 2026-05-03 22:18 | 40.69664 | -74.17143 | 26 ft | 12 kts | 153° |
| 2026-05-03 22:18 | 40.69586 | -74.17102 | 26 ft | 12 kts | 162° |
| 2026-05-03 22:19 | 40.69504 | -74.17077 | 26 ft | 12 kts | 171° |
| 2026-05-03 22:19 | 40.69420 | -74.17070 | 26 ft | 12 kts | 180° |
| 2026-05-03 22:19 | 40.69346 | -74.17081 | 26 ft | 12 kts | 193° |
| 2026-05-03 22:19 | 40.69253 | -74.17135 | 26 ft | 9 kts | 206° |
| 2026-05-03 22:20 | 40.69220 | -74.17156 | 26 ft | 7 kts | 206° |
| 2026-05-03 22:20 | 40.69188 | -74.17183 | 26 ft | 4 kts | 226° |
| 2026-05-03 22:20 | 40.69181 | -74.17221 | 26 ft | 4 kts | 268° |
| 2026-05-03 22:20 | 40.69182 | -74.17262 | 26 ft | 4 kts | 274° |
| 2026-05-03 22:21 | 40.69184 | -74.17295 | 26 ft | 2 kts | 275° |
| 2026-05-03 22:21 | 40.69186 | -74.17312 | 26 ft | 2 kts | 275° |
| 2026-05-03 22:21 | 40.69186 | -74.17324 | 26 ft | 1 kts | 275° |
| 2026-05-03 22:21 | 40.69187 | -74.17329 | 26 ft | 0 kts | 275° |